createdAt,value
2023-01-19T00:00:46.306Z,15.77
2023-01-19T00:03:16.313Z,13.30
2023-01-19T00:05:44.864Z,13.77
2023-01-19T00:08:15.896Z,13.50
2023-01-19T00:10:51.540Z,14.40
2023-01-19T00:13:18.866Z,12.90
2023-01-19T00:15:46.160Z,15.93
2023-01-19T00:18:39.294Z,11.87
2023-01-19T00:21:09.250Z,14.47
2023-01-19T00:23:36.193Z,12.67
2023-01-19T00:26:06.780Z,13.73
2023-01-19T00:28:33.743Z,18.40
2023-01-19T00:31:00.945Z,16.20
2023-01-19T00:33:28.415Z,12.73
2023-01-19T00:35:56.095Z,13.07
2023-01-19T00:38:23.222Z,13.90
2023-01-19T00:40:50.490Z,13.80
2023-01-19T00:43:17.735Z,15.13
2023-01-19T00:45:46.113Z,12.60
2023-01-19T00:48:13.282Z,13.43
2023-01-19T00:50:40.213Z,15.53
2023-01-19T00:53:07.202Z,13.00
2023-01-19T00:55:34.172Z,13.87
2023-01-19T00:58:01.231Z,15.90
2023-01-19T01:00:28.195Z,16.97
2023-01-19T01:02:55.830Z,15.03
2023-01-19T01:05:23.311Z,12.60
2023-01-19T01:07:50.960Z,13.57
2023-01-19T01:10:23.919Z,15.60
2023-01-19T01:12:54.934Z,14.13
2023-01-19T01:15:26.518Z,11.60
2023-01-19T01:17:53.887Z,14.50
2023-01-19T01:20:27.177Z,13.90
2023-01-19T01:22:55.751Z,13.23
2023-01-19T01:25:26.630Z,14.90
2023-01-19T01:27:54.444Z,11.80
2023-01-19T01:30:22.657Z,12.17
2023-01-19T01:32:50.466Z,11.10
2023-01-19T01:35:18.107Z,13.03
2023-01-19T01:37:45.161Z,11.80
2023-01-19T01:40:15.671Z,13.73
2023-01-19T01:42:43.613Z,12.10
2023-01-19T01:45:35.304Z,11.17
2023-01-19T01:48:27.016Z,12.40
2023-01-19T01:51:24.423Z,13.50
2023-01-19T01:54:18.157Z,11.60
2023-01-19T01:56:52.704Z,11.07
2023-01-19T01:59:29.621Z,12.43
2023-01-19T02:02:19.444Z,13.03
2023-01-19T02:05:04.231Z,12.53
2023-01-19T02:08:09.586Z,10.77
2023-01-19T02:10:56.067Z,10.83
2023-01-19T02:13:25.501Z,10.83
2023-01-19T02:15:56.236Z,11.60
2023-01-19T02:18:28.537Z,12.83
2023-01-19T02:21:25.427Z,12.97
2023-01-19T02:23:58.932Z,12.90
2023-01-19T02:26:36.691Z,15.27
2023-01-19T02:29:09.830Z,12.60
2023-01-19T02:31:39.743Z,12.40
2023-01-19T02:34:12.240Z,10.57
2023-01-19T02:37:00.227Z,12.23
2023-01-19T02:39:51.366Z,16.03
2023-01-19T02:42:53.187Z,10.93
2023-01-19T02:45:22.743Z,12.10
2023-01-19T02:47:52.771Z,11.43
2023-01-19T02:50:57.300Z,12.23
2023-01-19T02:53:48.701Z,10.57
2023-01-19T02:56:59.902Z,11.03
2023-01-19T02:59:48.677Z,13.53
2023-01-19T03:02:32.002Z,11.20
2023-01-19T03:05:29.528Z,11.33
2023-01-19T03:08:19.996Z,11.30
2023-01-19T03:11:10.333Z,11.43
2023-01-19T03:14:04.034Z,11.73
2023-01-19T03:16:55.323Z,10.97
2023-01-19T03:19:28.562Z,12.23
2023-01-19T03:22:02.703Z,11.63
2023-01-19T03:24:37.954Z,13.67
2023-01-19T03:27:18.520Z,11.70
2023-01-19T03:29:52.954Z,11.47
2023-01-19T03:32:29.708Z,12.83
2023-01-19T03:35:03.350Z,12.10
2023-01-19T03:37:33.728Z,11.07
2023-01-19T03:40:00.952Z,11.87
2023-01-19T03:42:29.139Z,11.30
2023-01-19T03:44:59.866Z,11.17
2023-01-19T03:47:27.911Z,9.43
2023-01-19T03:49:58.252Z,10.67
2023-01-19T03:52:33.603Z,8.30
2023-01-19T03:55:04.430Z,9.57
2023-01-19T03:57:32.408Z,9.80
2023-01-19T03:59:59.354Z,8.63
2023-01-19T04:02:26.554Z,9.10
2023-01-19T04:04:53.585Z,10.03
2023-01-19T04:07:20.592Z,7.63
2023-01-19T04:09:48.051Z,6.50
2023-01-19T04:12:15.618Z,6.20
2023-01-19T04:14:42.807Z,7.30
2023-01-19T04:17:10.415Z,5.47
2023-01-19T04:19:37.364Z,5.40
2023-01-19T04:22:04.842Z,5.97
2023-01-19T04:24:31.813Z,5.73
2023-01-19T04:26:59.169Z,4.67
2023-01-19T04:29:26.456Z,4.73
2023-01-19T04:31:53.300Z,5.57
2023-01-19T04:34:20.378Z,5.60
2023-01-19T04:36:50.971Z,5.17
2023-01-19T04:39:18.165Z,6.87
2023-01-19T04:41:45.208Z,5.87
2023-01-19T04:44:12.364Z,6.50
2023-01-19T04:46:39.379Z,5.90
2023-01-19T04:49:06.445Z,8.17
2023-01-19T04:51:34.346Z,5.70
2023-01-19T04:54:02.388Z,6.33
2023-01-19T04:56:29.725Z,4.90
2023-01-19T04:58:56.892Z,8.13
2023-01-19T05:01:24.317Z,8.10
2023-01-19T05:03:52.230Z,7.03
2023-01-19T05:06:19.363Z,6.13
2023-01-19T05:08:46.342Z,6.10
2023-01-19T05:11:13.378Z,7.87
2023-01-19T05:13:40.417Z,5.80
2023-01-19T05:16:08.031Z,5.83
2023-01-19T05:18:37.013Z,6.50
2023-01-19T05:21:05.111Z,7.83
2023-01-19T05:23:32.792Z,7.83
2023-01-19T05:26:03.035Z,9.00
2023-01-19T05:28:32.327Z,8.27
2023-01-19T05:30:59.353Z,7.90
2023-01-19T05:33:26.722Z,7.20
2023-01-19T05:35:54.592Z,8.07
2023-01-19T05:38:34.267Z,8.73
2023-01-19T05:41:02.679Z,10.13
2023-01-19T05:43:29.559Z,8.97
2023-01-19T05:45:56.635Z,9.30
2023-01-19T05:48:23.603Z,8.83
2023-01-19T05:50:51.424Z,9.13
2023-01-19T05:53:18.868Z,9.13
2023-01-19T05:55:45.784Z,8.73
2023-01-19T05:58:13.249Z,7.43
2023-01-19T06:00:40.339Z,8.60
2023-01-19T06:03:07.525Z,8.13
2023-01-19T06:05:35.554Z,8.67
2023-01-19T06:08:02.470Z,8.93
2023-01-19T06:10:29.525Z,9.57
2023-01-19T06:12:56.462Z,9.23
2023-01-19T06:15:23.417Z,9.67
2023-01-19T06:17:50.402Z,11.13
2023-01-19T06:20:17.512Z,9.80
2023-01-19T06:22:44.533Z,10.30
2023-01-19T06:25:11.991Z,9.37
2023-01-19T06:27:43.488Z,9.00
2023-01-19T06:30:12.180Z,11.63
2023-01-19T06:32:39.160Z,10.90
2023-01-19T06:35:07.881Z,12.73
2023-01-19T06:37:36.095Z,10.77
2023-01-19T06:40:03.924Z,10.93
2023-01-19T06:42:31.306Z,11.27
2023-01-19T06:44:58.631Z,12.00
2023-01-19T06:47:25.554Z,13.33
2023-01-19T06:49:52.549Z,14.07
2023-01-19T06:52:20.530Z,12.10
2023-01-19T06:54:47.845Z,12.33
2023-01-19T06:57:17.484Z,12.57
2023-01-19T06:59:45.392Z,11.77
2023-01-19T07:02:26.529Z,12.43
2023-01-19T07:04:56.554Z,11.60
2023-01-19T07:07:23.420Z,12.00
2023-01-19T07:09:53.779Z,12.20
2023-01-19T07:12:22.704Z,11.43
2023-01-19T07:14:50.048Z,10.93
2023-01-19T07:17:17.551Z,13.53
2023-01-19T07:19:45.264Z,14.13
2023-01-19T07:22:12.170Z,13.50
2023-01-19T07:24:39.329Z,13.57
2023-01-19T07:27:06.398Z,14.83
2023-01-19T07:29:33.336Z,14.53
2023-01-19T07:32:00.282Z,16.30
2023-01-19T07:34:27.270Z,15.87
2023-01-19T07:36:56.312Z,15.77
2023-01-19T07:39:23.350Z,15.03
2023-01-19T07:41:50.774Z,15.90
2023-01-19T07:44:18.404Z,16.67
2023-01-19T07:46:45.357Z,17.20
2023-01-19T07:49:12.692Z,18.87
2023-01-19T07:51:39.625Z,23.77
2023-01-19T07:54:08.457Z,22.47
2023-01-19T07:56:35.837Z,20.47
2023-01-19T07:59:02.839Z,22.20
2023-01-19T08:01:31.484Z,22.70
2023-01-19T08:03:58.569Z,23.07
2023-01-19T08:06:35.268Z,21.73
2023-01-19T08:09:05.480Z,22.43
2023-01-19T08:11:33.150Z,24.67
2023-01-19T08:14:00.887Z,22.73
2023-01-19T08:16:28.676Z,23.93
2023-01-19T08:18:55.692Z,22.50
2023-01-19T08:21:22.750Z,20.90
2023-01-19T08:23:57.381Z,24.77
2023-01-19T08:26:32.462Z,24.70
2023-01-19T08:29:03.758Z,23.03
2023-01-19T08:31:31.222Z,25.10
2023-01-19T08:33:58.786Z,25.40
2023-01-19T08:36:26.350Z,26.93
2023-01-19T08:38:53.780Z,28.47
2023-01-19T08:41:20.907Z,26.23
2023-01-19T08:43:49.219Z,28.20
2023-01-19T08:46:17.690Z,26.37
2023-01-19T08:48:51.145Z,27.93
2023-01-19T08:51:18.518Z,25.17
2023-01-19T08:53:45.572Z,24.73
2023-01-19T08:56:14.348Z,29.17
2023-01-19T08:58:51.191Z,28.57
2023-01-19T09:01:24.019Z,25.63
2023-01-19T09:03:52.005Z,26.73
2023-01-19T09:06:19.299Z,25.57
2023-01-19T09:08:47.795Z,24.50
2023-01-19T09:11:17.442Z,25.13
2023-01-19T09:13:45.102Z,26.30
2023-01-19T09:16:13.490Z,25.23
2023-01-19T09:18:40.724Z,27.93
2023-01-19T09:21:08.403Z,26.43
2023-01-19T09:23:35.411Z,25.10
2023-01-19T09:26:04.943Z,29.20
2023-01-19T09:28:33.006Z,26.13
2023-01-19T09:31:00.130Z,26.77
2023-01-19T09:33:27.742Z,24.63
2023-01-19T09:35:54.663Z,26.13
2023-01-19T09:38:22.519Z,27.50
2023-01-19T09:40:56.293Z,29.63
2023-01-19T09:43:54.677Z,24.17
2023-01-19T09:46:39.837Z,21.73
2023-01-19T09:49:20.661Z,21.30
2023-01-19T09:51:51.074Z,19.37
2023-01-19T09:54:41.107Z,22.70
2023-01-19T09:57:14.837Z,22.50
2023-01-19T09:59:47.794Z,21.40
2023-01-19T10:02:37.638Z,22.50
2023-01-19T10:06:01.141Z,17.63
2023-01-19T10:08:49.956Z,23.57
2023-01-19T10:11:52.675Z,20.37
2023-01-19T10:14:48.439Z,16.57
2023-01-19T10:17:43.610Z,22.03
2023-01-19T10:20:27.093Z,17.43
2023-01-19T10:22:57.261Z,20.30
2023-01-19T10:25:25.004Z,18.43
2023-01-19T10:27:52.076Z,19.97
2023-01-19T10:30:26.448Z,21.60
2023-01-19T10:32:53.780Z,25.57
2023-01-19T10:35:25.150Z,24.20
2023-01-19T10:38:00.087Z,23.10
2023-01-19T10:40:52.201Z,23.20
2023-01-19T10:43:44.756Z,23.87
2023-01-19T10:46:33.436Z,23.27
2023-01-19T10:49:00.910Z,26.97
2023-01-19T10:51:28.093Z,24.97
2023-01-19T10:54:04.234Z,21.90
2023-01-19T10:56:38.489Z,24.63
2023-01-19T10:59:10.402Z,22.40
2023-01-19T11:01:38.074Z,24.30
2023-01-19T11:04:27.247Z,22.40
2023-01-19T11:07:27.109Z,22.40
2023-01-19T11:10:20.779Z,20.70
2023-01-19T11:13:15.710Z,20.10
2023-01-19T11:16:20.640Z,21.93
2023-01-19T11:18:54.073Z,18.13
2023-01-19T11:21:26.528Z,19.67
2023-01-19T11:23:58.766Z,17.60
2023-01-19T11:26:40.718Z,23.13
2023-01-19T11:29:21.582Z,16.77
2023-01-19T11:31:50.549Z,21.47
2023-01-19T11:34:34.811Z,18.30
2023-01-19T11:37:19.964Z,16.87
2023-01-19T11:39:55.074Z,20.07
2023-01-19T11:42:23.381Z,19.50
2023-01-19T11:45:07.441Z,22.43
2023-01-19T11:47:49.179Z,19.40
2023-01-19T11:50:33.465Z,18.77
2023-01-19T11:53:14.619Z,19.97
2023-01-19T11:55:59.012Z,17.37
2023-01-19T11:58:27.397Z,19.70
2023-01-19T12:01:07.922Z,17.47
2023-01-19T12:03:43.116Z,18.87
2023-01-19T12:06:14.200Z,16.77
2023-01-19T12:09:10.579Z,17.70
2023-01-19T12:11:47.776Z,17.33
2023-01-19T12:14:27.279Z,17.13
2023-01-19T12:17:00.053Z,16.63
2023-01-19T12:19:54.897Z,18.50
2023-01-19T12:22:24.049Z,15.77
2023-01-19T12:25:11.995Z,17.10
2023-01-19T12:27:45.481Z,18.43
2023-01-19T12:30:27.995Z,15.83
2023-01-19T12:33:37.588Z,18.83
2023-01-19T12:36:17.335Z,16.47
2023-01-19T12:38:55.758Z,18.77
2023-01-19T12:41:31.818Z,13.83
2023-01-19T12:44:11.120Z,16.47
2023-01-19T12:47:07.572Z,15.87
2023-01-19T12:49:39.398Z,16.27
2023-01-19T12:52:51.556Z,15.27
2023-01-19T12:55:39.106Z,15.87
2023-01-19T12:58:23.781Z,15.30
2023-01-19T13:01:21.280Z,16.77
2023-01-19T13:04:09.720Z,19.00
2023-01-19T13:06:48.971Z,18.10
2023-01-19T13:09:33.962Z,18.30
2023-01-19T13:12:24.640Z,16.87
2023-01-19T13:15:29.248Z,19.57
2023-01-19T13:17:57.027Z,18.07
2023-01-19T13:20:43.437Z,20.57
2023-01-19T13:23:19.758Z,21.33
2023-01-19T13:25:58.788Z,19.53
2023-01-19T13:28:35.902Z,19.97
2023-01-19T13:31:03.874Z,20.00
2023-01-19T13:33:48.437Z,19.73
2023-01-19T13:36:26.934Z,21.20
2023-01-19T13:38:56.922Z,22.10
2023-01-19T13:41:29.371Z,22.33
2023-01-19T13:44:08.548Z,20.30
2023-01-19T13:46:38.682Z,17.63
2023-01-19T13:49:35.574Z,22.20
2023-01-19T13:52:26.074Z,21.20
2023-01-19T13:55:02.461Z,24.80
2023-01-19T13:57:39.466Z,20.30
2023-01-19T14:00:11.965Z,18.70
2023-01-19T14:02:59.349Z,21.73
2023-01-19T14:05:36.258Z,20.97
2023-01-19T14:08:11.054Z,21.30
2023-01-19T14:10:56.529Z,20.77
2023-01-19T14:13:33.899Z,18.83
2023-01-19T14:16:07.765Z,20.93
2023-01-19T14:18:36.513Z,20.10
2023-01-19T14:21:12.007Z,21.33
2023-01-19T14:23:45.692Z,19.23
2023-01-19T14:27:06.399Z,22.80
2023-01-19T14:29:36.175Z,19.03
2023-01-19T14:32:19.712Z,17.03
2023-01-19T14:35:04.136Z,21.10
2023-01-19T14:37:49.587Z,16.50
2023-01-19T14:40:22.494Z,16.00
2023-01-19T14:43:06.570Z,15.77
2023-01-19T14:45:39.386Z,17.23
2023-01-19T14:48:19.228Z,17.73
2023-01-19T14:51:01.926Z,15.17
2023-01-19T14:53:38.284Z,18.60
2023-01-19T14:56:06.818Z,18.47
2023-01-19T14:58:35.685Z,17.93
2023-01-19T15:01:03.665Z,19.33
2023-01-19T15:03:44.023Z,20.67
2023-01-19T15:06:19.915Z,16.63
2023-01-19T15:08:50.022Z,18.70
2023-01-19T15:11:24.546Z,18.17
2023-01-19T15:13:51.925Z,19.47
2023-01-19T15:16:23.754Z,17.27
2023-01-19T15:18:50.799Z,17.77
2023-01-19T15:21:23.132Z,20.43
2023-01-19T15:23:50.378Z,20.50
2023-01-19T15:26:23.367Z,21.97
2023-01-19T15:28:50.981Z,15.63
2023-01-19T15:31:23.700Z,20.23
2023-01-19T15:33:50.920Z,16.00
2023-01-19T15:36:21.752Z,16.50
2023-01-19T15:38:51.180Z,19.93
2023-01-19T15:41:29.993Z,16.97
2023-01-19T15:43:58.823Z,16.70
2023-01-19T15:46:26.517Z,20.10
2023-01-19T15:48:54.261Z,18.13
2023-01-19T15:51:28.583Z,19.10
2023-01-19T15:53:56.545Z,19.07
2023-01-19T15:56:27.217Z,18.87
2023-01-19T15:58:55.298Z,21.70
2023-01-19T16:01:32.662Z,16.20
2023-01-19T16:04:03.178Z,17.30
2023-01-19T16:06:31.271Z,16.90
2023-01-19T16:09:02.067Z,20.67
2023-01-19T16:11:32.710Z,18.43
2023-01-19T16:14:00.058Z,19.30
2023-01-19T16:16:28.190Z,18.57
2023-01-19T16:18:56.693Z,20.43
2023-01-19T16:21:23.930Z,19.70
2023-01-19T16:23:51.591Z,18.40
2023-01-19T16:26:34.551Z,18.03
2023-01-19T16:29:10.815Z,17.20
2023-01-19T16:31:42.822Z,16.60
2023-01-19T16:34:10.168Z,17.90
2023-01-19T16:36:40.481Z,16.80
2023-01-19T16:39:14.806Z,16.47
2023-01-19T16:41:44.822Z,18.50
2023-01-19T16:44:14.607Z,16.77
2023-01-19T16:46:45.945Z,16.93
2023-01-19T16:49:22.403Z,17.43
2023-01-19T16:51:50.726Z,17.73
2023-01-19T16:54:21.823Z,15.83
2023-01-19T16:56:50.564Z,16.97
2023-01-19T16:59:19.176Z,16.17
2023-01-19T17:01:46.221Z,15.57
2023-01-19T17:04:14.404Z,16.97
2023-01-19T17:06:42.133Z,17.03
2023-01-19T17:09:09.687Z,17.50
2023-01-19T17:11:37.855Z,17.40
2023-01-19T17:14:10.809Z,16.93
2023-01-19T17:16:38.057Z,18.53
2023-01-19T17:19:07.900Z,17.53
2023-01-19T17:21:35.522Z,18.87
2023-01-19T17:24:02.409Z,19.47
2023-01-19T17:26:31.170Z,22.00
2023-01-19T17:29:05.413Z,21.57
2023-01-19T17:31:35.399Z,20.20
2023-01-19T17:34:03.391Z,21.83
2023-01-19T17:36:32.658Z,21.77
2023-01-19T17:39:06.293Z,17.97
2023-01-19T17:41:35.393Z,17.97
2023-01-19T17:44:05.022Z,20.33
2023-01-19T17:46:35.760Z,21.97
2023-01-19T17:49:06.326Z,19.23
2023-01-19T17:51:35.179Z,22.87
2023-01-19T17:54:04.110Z,20.87
2023-01-19T17:56:36.683Z,20.83
2023-01-19T17:59:06.470Z,21.83
2023-01-19T18:01:37.856Z,19.67
2023-01-19T18:04:05.931Z,20.80
2023-01-19T18:06:33.723Z,20.83
2023-01-19T18:09:00.683Z,22.67
2023-01-19T18:11:28.441Z,20.77
2023-01-19T18:13:55.789Z,20.27
2023-01-19T18:16:28.846Z,19.73
2023-01-19T18:18:57.513Z,23.07
2023-01-19T18:21:28.177Z,22.80
2023-01-19T18:24:02.219Z,19.03
2023-01-19T18:26:33.360Z,23.63
2023-01-19T18:29:02.129Z,23.37
2023-01-19T18:31:29.850Z,25.93
2023-01-19T18:33:56.895Z,24.27
2023-01-19T18:36:24.278Z,26.37
2023-01-19T18:38:51.981Z,20.80
2023-01-19T18:41:21.933Z,21.40
2023-01-19T18:43:50.065Z,24.40
2023-01-19T18:46:17.585Z,21.00
2023-01-19T18:48:44.884Z,24.97
2023-01-19T18:51:16.135Z,20.33
2023-01-19T18:53:44.937Z,22.10
2023-01-19T18:56:15.807Z,20.73
2023-01-19T18:58:44.389Z,22.40
2023-01-19T19:01:19.388Z,22.53
2023-01-19T19:03:46.902Z,21.13
2023-01-19T19:06:15.650Z,19.33
2023-01-19T19:08:44.077Z,21.17
2023-01-19T19:11:13.937Z,20.80
2023-01-19T19:13:41.733Z,21.63
2023-01-19T19:16:11.847Z,22.23
2023-01-19T19:18:39.976Z,23.27
2023-01-19T19:21:12.088Z,19.03
2023-01-19T19:23:39.913Z,23.40
2023-01-19T19:26:12.184Z,23.60
2023-01-19T19:28:41.058Z,22.37
2023-01-19T19:31:20.598Z,21.33
2023-01-19T19:33:50.856Z,22.43
2023-01-19T19:36:20.189Z,22.07
2023-01-19T19:38:48.707Z,20.70
2023-01-19T19:41:21.800Z,21.43
2023-01-19T19:43:50.618Z,20.13
2023-01-19T19:46:20.493Z,21.40
2023-01-19T19:48:49.705Z,20.70
2023-01-19T19:51:25.432Z,19.13
2023-01-19T19:53:59.268Z,22.00
2023-01-19T19:56:30.887Z,22.37
2023-01-19T19:58:59.379Z,24.87
2023-01-19T20:01:32.882Z,19.83
2023-01-19T20:04:11.271Z,21.00
2023-01-19T20:06:44.941Z,20.00
2023-01-19T20:09:14.266Z,24.80
2023-01-19T20:11:46.764Z,21.00
2023-01-19T20:14:16.289Z,23.23
2023-01-19T20:16:44.292Z,23.53
2023-01-19T20:19:11.635Z,22.80
2023-01-19T20:21:42.732Z,20.33
2023-01-19T20:24:19.867Z,21.40
2023-01-19T20:26:51.809Z,21.70
2023-01-19T20:29:20.207Z,20.73
2023-01-19T20:31:52.163Z,20.73
2023-01-19T20:34:22.702Z,21.20
2023-01-19T20:36:51.564Z,22.60
2023-01-19T20:39:20.425Z,20.37
2023-01-19T20:41:50.871Z,21.10
2023-01-19T20:44:24.234Z,20.67
2023-01-19T20:46:53.173Z,17.73
2023-01-19T20:49:20.508Z,22.83
2023-01-19T20:51:48.413Z,23.80
2023-01-19T20:54:20.413Z,24.10
2023-01-19T20:56:47.635Z,21.13
2023-01-19T20:59:14.636Z,21.53
2023-01-19T21:01:43.105Z,20.97
2023-01-19T21:04:11.622Z,25.23
2023-01-19T21:06:38.898Z,21.73
2023-01-19T21:09:06.998Z,23.27
2023-01-19T21:11:35.202Z,23.90
2023-01-19T21:14:02.274Z,23.27
2023-01-19T21:16:32.731Z,24.27
2023-01-19T21:19:00.108Z,22.73
2023-01-19T21:21:31.643Z,26.23
2023-01-19T21:24:01.668Z,26.87
2023-01-19T21:26:33.359Z,24.63
2023-01-19T21:29:03.240Z,28.93
2023-01-19T21:31:31.363Z,24.10
2023-01-19T21:33:59.228Z,22.83
2023-01-19T21:36:26.832Z,26.17
2023-01-19T21:39:00.135Z,23.10
2023-01-19T21:41:29.833Z,24.23
2023-01-19T21:43:58.489Z,22.97
2023-01-19T21:46:29.210Z,22.50
2023-01-19T21:48:58.837Z,24.80
2023-01-19T21:51:26.644Z,24.77
2023-01-19T21:53:57.028Z,26.83
2023-01-19T21:56:24.041Z,21.47
2023-01-19T21:58:51.061Z,23.70
2023-01-19T22:01:18.153Z,24.30
2023-01-19T22:03:45.365Z,26.97
2023-01-19T22:06:14.553Z,24.00
2023-01-19T22:08:42.146Z,22.77
2023-01-19T22:11:16.037Z,23.40
2023-01-19T22:13:44.123Z,23.83
2023-01-19T22:16:14.801Z,25.33
2023-01-19T22:18:44.400Z,23.50
2023-01-19T22:21:21.405Z,27.50
2023-01-19T22:23:54.601Z,27.50
2023-01-19T22:26:22.246Z,26.90
2023-01-19T22:28:57.438Z,27.77
2023-01-19T22:31:26.165Z,28.57
2023-01-19T22:33:54.507Z,26.53
2023-01-19T22:36:26.628Z,25.43
2023-01-19T22:38:56.986Z,26.97
2023-01-19T22:41:25.228Z,36.60
2023-01-19T22:43:56.594Z,28.30
2023-01-19T22:46:28.677Z,27.53
2023-01-19T22:48:56.149Z,30.40
2023-01-19T22:51:25.102Z,27.93
2023-01-19T22:53:52.642Z,27.17
2023-01-19T22:56:26.932Z,29.33
2023-01-19T22:58:55.331Z,31.37
2023-01-19T23:01:25.963Z,29.90
2023-01-19T23:03:54.990Z,29.23
2023-01-19T23:06:25.685Z,33.63
2023-01-19T23:08:56.393Z,28.93
2023-01-19T23:11:28.045Z,31.07
2023-01-19T23:13:55.487Z,29.90
2023-01-19T23:16:22.489Z,31.50
2023-01-19T23:18:54.467Z,31.70
2023-01-19T23:21:24.840Z,32.00
2023-01-19T23:24:04.400Z,27.73
2023-01-19T23:26:38.159Z,30.57
2023-01-19T23:29:12.793Z,29.53
2023-01-19T23:31:44.812Z,27.57
2023-01-19T23:34:13.294Z,28.60
2023-01-19T23:36:42.887Z,26.80
2023-01-19T23:39:20.260Z,28.10
2023-01-19T23:41:48.504Z,30.17
2023-01-19T23:44:17.013Z,25.30
2023-01-19T23:46:45.034Z,24.67
2023-01-19T23:49:13.267Z,26.83
2023-01-19T23:51:41.495Z,27.90
2023-01-19T23:54:08.897Z,25.47
2023-01-19T23:56:38.752Z,35.37
2023-01-19T23:59:09.735Z,26.77
